Time;durP1;ratioP1;P1;durP2;ratioP2;P2;SDS_P1;SDS_P2;PMS_P1;PMS_P2;Temp;Humidity;BMP_temperature;BMP_pressure;BME280_temperature;BME280_humidity;BME280_pressure;Samples;Min_cycle;Max_cycle;Signal;HPM_P1;HPM_P2
2022/07/09 00:00:10;;;;;;;12.98;7.47;;;;;;;23.50;50.27;100375.16;2111513;28;20047;-72
2022/07/09 00:01:31;;;;;;;10.93;7.18;;;;;;;23.50;50.24;100371.63;2110979;28;20091;-73
2022/07/09 00:02:53;;;;;;;8.88;7.10;;;;;;;23.45;50.44;100369.94;2102486;28;20048;-73
2022/07/09 00:04:16;;;;;;;11.48;7.68;;;;;;;23.42;50.53;100370.09;2102936;28;20052;-73
2022/07/09 00:05:37;;;;;;;9.13;7.30;;;;;;;23.40;50.53;100369.28;2102668;28;20070;-72
2022/07/09 00:07:00;;;;;;;9.95;7.10;;;;;;;23.38;50.61;100363.06;2102891;28;20044;-72
2022/07/09 00:08:22;;;;;;;9.75;7.35;;;;;;;23.37;50.74;100357.75;2094559;28;20044;-72
2022/07/09 00:09:44;;;;;;;12.15;7.82;;;;;;;23.37;50.87;100364.00;2099625;28;20044;-72
2022/07/09 00:11:07;;;;;;;12.02;8.23;;;;;;;23.39;50.69;100362.13;2102933;28;20142;-73
2022/07/09 00:12:28;;;;;;;13.02;8.40;;;;;;;23.42;50.63;100361.13;2102458;28;20043;-72
2022/07/09 00:13:52;;;;;;;10.70;7.63;;;;;;;23.40;50.72;100358.50;2102669;28;20420;-73
2022/07/09 00:15:14;;;;;;;11.57;7.85;;;;;;;23.37;50.87;100360.44;2102917;28;20076;-73
2022/07/09 00:16:36;;;;;;;9.40;7.55;;;;;;;23.32;50.94;100357.06;2102734;28;20052;-72
2022/07/09 00:17:58;;;;;;;10.13;7.43;;;;;;;23.29;51.18;100346.44;2102500;28;20528;-73
2022/07/09 00:19:20;;;;;;;9.90;7.95;;;;;;;23.24;51.39;100351.13;2102577;28;20490;-73
2022/07/09 00:20:41;;;;;;;11.88;7.70;;;;;;;23.24;51.43;100356.53;2102767;28;20621;-73
2022/07/09 00:22:05;;;;;;;10.32;7.93;;;;;;;23.23;51.42;100358.38;2107268;28;20047;-72
2022/07/09 00:23:27;;;;;;;9.73;7.47;;;;;;;23.28;51.33;100350.09;2111021;28;20161;-72
2022/07/09 00:24:49;;;;;;;11.88;8.20;;;;;;;23.31;51.27;100352.63;2113770;28;20134;-73
2022/07/09 00:26:12;;;;;;;10.68;8.18;;;;;;;23.33;51.21;100356.13;2104439;28;20409;-72
2022/07/09 00:27:33;;;;;;;10.13;7.47;;;;;;;23.33;51.26;100354.31;2116834;27;20114;-72
2022/07/09 00:28:57;;;;;;;10.75;7.82;;;;;;;23.33;51.34;100348.06;2105308;28;20040;-73
2022/07/09 00:30:20;;;;;;;11.20;8.05;;;;;;;23.32;51.46;100351.69;2108600;28;20076;-73
2022/07/09 00:31:42;;;;;;;11.90;8.45;;;;;;;23.27;51.41;100340.25;2111072;28;20049;-73
2022/07/09 00:33:04;;;;;;;9.48;7.38;;;;;;;23.20;51.54;100345.03;2110657;28;20067;-73
2022/07/09 00:34:27;;;;;;;10.90;7.95;;;;;;;23.18;51.59;100346.88;2111048;28;20062;-72
2022/07/09 00:35:48;;;;;;;11.43;7.90;;;;;;;23.18;51.54;100346.00;2110991;28;20096;-73
2022/07/09 00:37:11;;;;;;;10.73;7.90;;;;;;;23.16;51.48;100343.41;2110662;28;20147;-73
2022/07/09 00:38:33;;;;;;;10.63;7.30;;;;;;;23.17;51.55;100339.75;2111019;28;20523;-74
2022/07/09 00:39:55;;;;;;;11.93;7.88;;;;;;;23.18;51.50;100343.31;2110767;28;20171;-73
2022/07/09 00:41:18;;;;;;;10.80;7.43;;;;;;;23.15;51.42;100332.69;2110839;28;20088;-72
2022/07/09 00:42:39;;;;;;;12.00;7.72;;;;;;;23.16;51.44;100331.75;2113663;28;20576;-73
2022/07/09 00:44:03;;;;;;;10.75;7.78;;;;;;;23.20;51.24;100326.16;2113793;28;20614;-72
2022/07/09 00:45:24;;;;;;;12.73;7.40;;;;;;;23.25;51.08;100328.66;2102523;28;20093;-72
2022/07/09 00:46:47;;;;;;;10.68;7.60;;;;;;;23.29;50.87;100322.22;2107902;28;20051;-73
2022/07/09 00:48:08;;;;;;;9.45;7.13;;;;;;;23.31;50.85;100323.00;2102467;28;20074;-73
2022/07/09 00:49:32;;;;;;;10.15;7.43;;;;;;;23.30;50.82;100322.13;2107947;28;20061;-73
2022/07/09 00:50:54;;;;;;;13.20;7.53;;;;;;;23.31;50.93;100318.47;2111141;28;20044;-72
2022/07/09 00:52:18;;;;;;;9.98;6.80;;;;;;;23.31;51.07;100321.19;2110988;28;20528;-73
2022/07/09 00:53:42;;;;;;;9.88;7.28;;;;;;;23.23;51.00;100311.69;2110909;28;20051;-73
2022/07/09 00:55:05;;;;;;;10.23;7.60;;;;;;;23.14;51.33;100314.78;2111118;28;20558;-73
2022/07/09 00:56:29;;;;;;;10.65;8.15;;;;;;;23.14;51.36;100301.31;2108302;28;20052;-72
2022/07/09 00:57:51;;;;;;;10.35;7.82;;;;;;;23.18;51.36;100305.63;2110992;28;20050;-73
2022/07/09 00:59:15;;;;;;;11.60;6.97;;;;;;;23.19;51.22;100302.84;2111007;28;20035;-73
2022/07/09 01:00:37;;;;;;;12.13;7.28;;;;;;;23.20;51.22;100307.31;2111195;28;20073;-73
2022/07/09 01:02:01;;;;;;;12.48;7.72;;;;;;;23.23;51.09;100306.31;2102301;28;20093;-73
2022/07/09 01:03:23;;;;;;;10.25;7.00;;;;;;;23.23;51.08;100307.19;2111371;28;20047;-73
2022/07/09 01:04:45;;;;;;;9.93;7.70;;;;;;;23.23;51.04;100309.00;2110969;28;20040;-73
2022/07/09 01:06:07;;;;;;;9.82;7.32;;;;;;;23.14;51.18;100302.19;2110719;28;20397;-73
2022/07/09 01:07:28;;;;;;;11.35;7.88;;;;;;;23.07;51.41;100303.41;2111007;28;20071;-74
2022/07/09 01:08:52;;;;;;;10.82;7.35;;;;;;;23.06;51.41;100301.66;2110799;28;20035;-73
2022/07/09 01:10:14;;;;;;;11.27;7.78;;;;;;;23.09;51.47;100304.22;2110769;28;20058;-72
2022/07/09 01:11:38;;;;;;;12.57;9.20;;;;;;;23.08;51.37;100298.88;2113578;28;20082;-72
2022/07/09 01:13:02;;;;;;;11.30;8.45;;;;;;;23.07;51.41;100298.00;2110904;28;20699;-72
2022/07/09 01:14:25;;;;;;;13.23;8.65;;;;;;;23.09;51.20;100292.56;2110518;28;20051;-72
2022/07/09 01:15:47;;;;;;;13.02;7.65;;;;;;;23.09;51.20;100290.75;2110781;28;20050;-72
2022/07/09 01:17:10;;;;;;;11.45;7.80;;;;;;;23.07;51.09;100291.75;2110655;28;20079;-72
2022/07/09 01:18:32;;;;;;;10.80;8.02;;;;;;;23.07;51.35;100289.94;2110600;28;20044;-73
2022/07/09 01:19:54;;;;;;;10.05;7.28;;;;;;;23.08;51.37;100280.03;2110556;28;20139;-72
2022/07/09 01:21:18;;;;;;;11.32;7.20;;;;;;;23.10;51.41;100284.44;2110522;28;20048;-72
2022/07/09 01:22:41;;;;;;;9.80;7.45;;;;;;;23.13;51.34;100281.59;2093542;28;20543;-73
2022/07/09 01:24:04;;;;;;;9.65;6.28;;;;;;;23.18;51.05;100286.75;2096265;28;20041;-72
2022/07/09 01:25:35;;;;;;;9.93;6.68;;;;;;;23.20;50.91;100275.00;2094077;28;20060;-72
2022/07/09 01:26:57;;;;;;;10.27;8.35;;;;;;;23.22;50.77;100280.31;2094962;28;20075;-73
2022/07/09 01:28:20;;;;;;;10.25;7.05;;;;;;;23.23;50.74;100276.69;2093623;28;20490;-72
2022/07/09 01:29:43;;;;;;;9.82;7.63;;;;;;;23.23;50.76;100272.19;2093727;28;20079;-72
2022/07/09 01:31:05;;;;;;;10.68;8.07;;;;;;;23.21;50.73;100274.06;2085629;28;20583;-72
2022/07/09 01:32:29;;;;;;;9.98;7.07;;;;;;;23.20;50.81;100271.41;2093869;28;20554;-73
2022/07/09 01:33:50;;;;;;;10.18;6.80;;;;;;;23.20;50.84;100272.28;2085705;28;20045;-73
2022/07/09 01:35:12;;;;;;;9.13;6.40;;;;;;;23.13;50.80;100268.13;2090768;28;20040;-73
2022/07/09 01:36:35;;;;;;;8.77;7.18;;;;;;;23.04;51.12;100272.06;2093500;28;20476;-72
2022/07/09 01:37:58;;;;;;;10.38;6.60;;;;;;;22.93;51.50;100270.81;2087542;28;20098;-72
2022/07/09 01:39:20;;;;;;;12.25;6.85;;;;;;;22.80;51.78;100265.06;2091040;28;20078;-72
2022/07/09 01:40:41;;;;;;;11.18;7.03;;;;;;;22.68;52.08;100262.88;2093697;28;20417;-72
2022/07/09 01:42:04;;;;;;;9.10;6.60;;;;;;;22.65;52.24;100257.59;2093516;28;20047;-72
2022/07/09 01:43:25;;;;;;;11.15;6.97;;;;;;;22.61;52.32;100253.28;2101556;28;20075;-72
2022/07/09 01:44:49;;;;;;;10.25;6.65;;;;;;;22.58;52.48;100254.28;2088183;28;20072;-73
2022/07/09 01:46:11;;;;;;;9.52;6.97;;;;;;;22.57;52.37;100255.25;2093811;28;20045;-73
2022/07/09 01:47:33;;;;;;;8.55;6.53;;;;;;;22.59;52.42;100250.66;2093604;28;20084;-73
2022/07/09 01:48:56;;;;;;;10.20;7.53;;;;;;;22.64;52.21;100250.50;2093680;28;20051;-72
2022/07/09 01:50:18;;;;;;;8.43;6.40;;;;;;;22.73;52.12;100252.81;2093448;28;20087;-72
2022/07/09 01:51:42;;;;;;;9.93;7.13;;;;;;;22.80;51.89;100242.66;2093682;28;20672;-72
2022/07/09 01:53:04;;;;;;;9.75;6.65;;;;;;;22.84;51.91;100247.00;2093863;28;20723;-72
2022/07/09 01:54:27;;;;;;;9.88;6.32;;;;;;;22.83;51.86;100242.53;2093463;28;20036;-73
2022/07/09 01:55:48;;;;;;;9.50;6.90;;;;;;;22.84;51.87;100247.84;2102101;28;20574;-73
2022/07/09 01:57:11;;;;;;;9.50;6.30;;;;;;;22.85;51.86;100246.91;2096088;28;20076;-72
2022/07/09 01:58:32;;;;;;;8.02;6.18;;;;;;;22.86;51.77;100254.03;2093511;28;20056;-73
2022/07/09 01:59:55;;;;;;;10.65;7.05;;;;;;;22.87;51.73;100246.84;2096466;28;20036;-73
2022/07/09 02:01:17;;;;;;;9.50;6.63;;;;;;;22.89;51.75;100247.66;2093880;28;20056;-73
2022/07/09 02:02:38;;;;;;;11.55;6.95;;;;;;;22.88;51.72;100249.47;2093181;28;20132;-73
2022/07/09 02:04:01;;;;;;;7.93;6.20;;;;;;;22.89;51.73;100244.97;2093464;28;20041;-73
2022/07/09 02:05:24;;;;;;;8.48;5.57;;;;;;;22.92;51.73;100243.00;2093672;28;20049;-73
2022/07/09 02:06:46;;;;;;;8.60;6.55;;;;;;;22.98;51.55;100240.03;2093593;28;20042;-73
2022/07/09 02:08:09;;;;;;;9.30;6.22;;;;;;;23.04;51.38;100237.06;2093738;28;20052;-72
2022/07/09 02:09:31;;;;;;;8.00;5.85;;;;;;;23.14;51.08;100236.69;2093555;28;20139;-72
2022/07/09 02:10:54;;;;;;;8.20;5.82;;;;;;;23.20;50.90;100228.31;2093202;28;20127;-73
2022/07/09 02:12:17;;;;;;;11.40;6.40;;;;;;;23.25;50.75;100234.38;2093653;28;20057;-72
2022/07/09 02:13:38;;;;;;;9.10;6.30;;;;;;;23.28;50.58;100232.44;2093684;28;20044;-73
2022/07/09 02:15:01;;;;;;;9.07;6.18;;;;;;;23.23;50.80;100228.19;2093458;28;20041;-73
2022/07/09 02:16:22;;;;;;;11.13;6.45;;;;;;;23.12;51.03;100230.47;2093624;28;20430;-72
2022/07/09 02:17:45;;;;;;;7.15;5.38;;;;;;;23.07;51.18;100228.00;2096133;28;20044;-72
2022/07/09 02:19:07;;;;;;;10.82;7.10;;;;;;;23.08;51.22;100229.75;2096199;28;20447;-73
2022/07/09 02:20:29;;;;;;;7.82;6.07;;;;;;;23.08;51.20;100231.56;2093734;28;20049;-73
2022/07/09 02:21:53;;;;;;;9.48;5.97;;;;;;;23.07;51.31;100228.00;2096559;28;20039;-73
2022/07/09 02:23:15;;;;;;;8.73;6.10;;;;;;;23.05;51.37;100229.88;2108918;28;20043;-73
2022/07/09 02:24:38;;;;;;;8.73;5.50;;;;;;;23.06;51.36;100226.25;2110309;28;20702;-72
2022/07/09 02:26:01;;;;;;;9.18;5.78;;;;;;;23.08;51.35;100228.88;2101806;28;20047;-72
2022/07/09 02:27:22;;;;;;;10.93;5.50;;;;;;;23.10;51.16;100227.88;2099187;28;20700;-72
2022/07/09 02:28:45;;;;;;;9.75;6.07;;;;;;;23.14;51.13;100231.28;2107739;28;20496;-73
2022/07/09 02:30:08;;;;;;;9.02;5.70;;;;;;;23.17;51.10;100234.72;2110288;28;20565;-73
2022/07/09 02:31:30;;;;;;;8.18;5.38;;;;;;;23.15;51.15;100236.63;2110241;28;20138;-73
2022/07/09 02:32:53;;;;;;;6.70;5.28;;;;;;;23.12;51.25;100235.88;2110009;28;20071;-72
2022/07/09 02:34:14;;;;;;;8.40;5.40;;;;;;;23.05;51.60;100236.13;2110240;28;20070;-72
2022/07/09 02:35:37;;;;;;;7.15;5.30;;;;;;;22.96;51.73;100236.56;2110300;28;20083;-73
2022/07/09 02:37:01;;;;;;;7.90;5.60;;;;;;;22.89;51.91;100239.59;2113047;28;20055;-73
2022/07/09 02:38:24;;;;;;;10.63;6.00;;;;;;;22.87;52.03;100236.94;2112835;28;20082;-73
2022/07/09 02:39:45;;;;;;;7.50;5.78;;;;;;;22.91;52.00;100243.94;2110064;28;20039;-74
2022/07/09 02:41:11;;;;;;;8.55;5.88;;;;;;;22.95;51.86;100239.31;2110631;28;20044;-73
2022/07/09 02:42:34;;;;;;;7.93;5.55;;;;;;;22.98;51.75;100239.16;2110104;28;20134;-72
2022/07/09 02:43:57;;;;;;;9.73;5.80;;;;;;;22.98;51.57;100245.44;2110291;28;20063;-72
2022/07/09 02:45:18;;;;;;;8.57;5.72;;;;;;;22.97;51.78;100243.66;2112842;28;20056;-73
2022/07/09 02:46:41;;;;;;;9.27;5.60;;;;;;;22.94;51.73;100246.50;2104110;28;20051;-73
2022/07/09 02:48:03;;;;;;;7.13;5.32;;;;;;;22.92;51.98;100258.28;2104263;28;20043;-73
2022/07/09 02:49:25;;;;;;;7.38;5.35;;;;;;;22.80;52.08;100251.59;2099132;28;20136;-73
2022/07/09 02:50:48;;;;;;;9.07;5.57;;;;;;;22.66;52.43;100251.28;2108828;28;20047;-73
2022/07/09 02:52:12;;;;;;;14.13;5.60;;;;;;;22.57;52.74;100249.00;2111852;28;20047;-73
2022/07/09 02:53:34;;;;;;;6.95;4.80;;;;;;;22.60;52.72;100252.41;2111499;28;20103;-73
2022/07/09 02:54:55;;;;;;;8.60;5.43;;;;;;;22.67;52.52;100247.66;2111719;28;20443;-73
2022/07/09 02:56:18;;;;;;;10.30;5.85;;;;;;;22.73;52.52;100260.88;2111917;28;20079;-73
2022/07/09 02:57:40;;;;;;;7.38;5.25;;;;;;;22.78;52.51;100255.28;2103333;28;20135;-73
2022/07/09 02:59:04;;;;;;;10.43;5.65;;;;;;;22.81;52.48;100257.88;2109085;28;20043;-73
2022/07/09 03:00:26;;;;;;;7.60;5.60;;;;;;;22.84;52.31;100261.28;2111796;28;20047;-72
2022/07/09 03:01:49;;;;;;;9.38;5.85;;;;;;;22.88;52.27;100262.06;2111959;28;20071;-73
2022/07/09 03:03:10;;;;;;;7.95;5.28;;;;;;;22.90;52.22;100263.75;2111384;28;20767;-73
2022/07/09 03:04:33;;;;;;;8.70;6.07;;;;;;;22.91;52.08;100259.22;2114505;28;20054;-73
2022/07/09 03:05:54;;;;;;;8.07;5.38;;;;;;;22.91;52.05;100262.78;2111694;28;20044;-72
2022/07/09 03:07:18;;;;;;;7.03;5.45;;;;;;;22.91;52.11;100262.78;2102227;28;20086;-72
2022/07/09 03:08:40;;;;;;;8.25;5.97;;;;;;;22.89;52.29;100258.44;2111738;28;20071;-73
2022/07/09 03:10:03;;;;;;;10.40;5.63;;;;;;;22.84;52.31;100263.13;2111518;28;20052;-72
2022/07/09 03:11:24;;;;;;;12.48;5.60;;;;;;;22.77;52.52;100270.59;2111467;28;20078;-72
2022/07/09 03:12:47;;;;;;;6.82;5.20;;;;;;;22.67;52.75;100258.41;2103287;28;20047;-73
2022/07/09 03:14:10;;;;;;;9.90;5.60;;;;;;;22.65;52.92;100260.28;2108687;28;20135;-73
2022/07/09 03:15:31;;;;;;;10.48;6.00;;;;;;;22.65;52.94;100262.97;2111485;28;20079;-73
2022/07/09 03:16:53;;;;;;;9.95;5.65;;;;;;;22.70;52.83;100262.81;2111549;28;20036;-73
2022/07/09 03:18:15;;;;;;;6.80;4.65;;;;;;;22.73;52.88;100260.88;2113870;28;20044;-73
2022/07/09 03:19:38;;;;;;;7.93;4.97;;;;;;;22.78;52.70;100258.88;2111436;28;20043;-73
2022/07/09 03:20:59;;;;;;;8.20;5.53;;;;;;;22.82;52.48;100255.13;2103124;28;20044;-73
2022/07/09 03:22:24;;;;;;;8.55;5.35;;;;;;;22.87;52.51;100252.22;2095626;28;20052;-73
2022/07/09 03:23:45;;;;;;;8.23;5.35;;;;;;;22.90;52.46;100254.78;2094629;28;20078;-72
2022/07/09 03:25:09;;;;;;;9.15;5.45;;;;;;;22.93;52.36;100258.22;2094805;28;20033;-72
2022/07/09 03:26:31;;;;;;;9.05;5.32;;;;;;;22.94;52.38;100269.88;2100821;28;20691;-73
2022/07/09 03:27:54;;;;;;;6.50;4.68;;;;;;;22.89;52.67;100267.38;2105549;28;20075;-73
2022/07/09 03:29:15;;;;;;;11.90;6.15;;;;;;;22.86;52.66;100263.94;2097361;28;20098;-73
2022/07/09 03:30:38;;;;;;;10.48;5.00;;;;;;;22.82;52.81;100265.00;2100081;28;20055;-73
2022/07/09 03:32:01;;;;;;;9.85;5.38;;;;;;;22.85;52.78;100270.25;2102961;28;20060;-74
2022/07/09 03:33:24;;;;;;;11.15;5.38;;;;;;;22.88;52.79;100264.75;2105665;28;20121;-74
2022/07/09 03:34:47;;;;;;;8.00;4.63;;;;;;;22.94;52.61;100267.16;2103075;28;20071;-74
2022/07/09 03:36:09;;;;;;;10.80;5.50;;;;;;;23.00;52.61;100267.78;2105612;28;20105;-74
2022/07/09 03:37:34;;;;;;;7.25;4.80;;;;;;;23.08;52.65;100272.84;2103142;28;20079;-74
2022/07/09 03:38:56;;;;;;;9.60;5.75;;;;;;;23.15;52.65;100271.63;2103164;28;20382;-74
2022/07/09 03:40:18;;;;;;;10.43;5.43;;;;;;;23.27;52.47;100275.59;2111419;28;20052;-74
2022/07/09 03:41:39;;;;;;;7.78;5.50;;;;;;;23.35;52.40;100271.63;2097297;28;20072;-73
2022/07/09 03:43:02;;;;;;;11.30;5.50;;;;;;;23.40;52.36;100279.50;2102420;28;20044;-73
2022/07/09 03:44:23;;;;;;;12.13;5.55;;;;;;;23.46;52.39;100265.75;2103127;28;20072;-73
2022/07/09 03:45:46;;;;;;;12.93;5.22;;;;;;;23.52;52.48;100270.88;2094513;28;20048;-74
2022/07/09 03:47:08;;;;;;;8.88;5.43;;;;;;;23.59;52.45;100271.47;2092081;28;20077;-73
2022/07/09 03:48:31;;;;;;;7.80;4.93;;;;;;;23.66;52.44;100271.13;2100409;28;20063;-74
2022/07/09 03:49:53;;;;;;;9.35;5.30;;;;;;;23.76;52.21;100272.44;2102562;28;20044;-74
2022/07/09 03:51:15;;;;;;;10.27;5.47;;;;;;;23.85;52.07;100265.75;2102647;28;20094;-73
2022/07/09 03:52:39;;;;;;;9.02;4.85;;;;;;;23.96;51.97;100266.09;2102881;28;20127;-74
2022/07/09 03:54:01;;;;;;;7.10;4.88;;;;;;;24.08;51.67;100270.94;2097202;28;20048;-73
2022/07/09 03:55:24;;;;;;;7.95;4.50;;;;;;;24.21;51.40;100263.16;2108630;28;20079;-74
2022/07/09 03:56:45;;;;;;;7.05;4.93;;;;;;;24.33;50.76;100264.38;2105363;28;20040;-73
2022/07/09 03:58:08;;;;;;;9.45;4.45;;;;;;;24.42;50.63;100267.50;2105384;28;20130;-75
2022/07/09 03:59:30;;;;;;;6.75;4.40;;;;;;;24.55;50.69;100263.22;2111099;28;20150;-74
2022/07/09 04:00:54;;;;;;;6.38;3.72;;;;;;;24.67;50.51;100261.78;2105461;28;20064;-74
2022/07/09 04:02:17;;;;;;;6.88;3.75;;;;;;;24.80;50.29;100265.59;2094779;28;20048;-73
2022/07/09 04:03:40;;;;;;;6.50;4.25;;;;;;;24.93;50.16;100264.06;2099577;28;20087;-74
2022/07/09 04:05:01;;;;;;;6.97;4.05;;;;;;;25.04;49.68;100268.88;2094773;28;20045;-74
2022/07/09 04:06:23;;;;;;;10.63;3.70;;;;;;;25.07;49.51;100259.75;2100218;28;20109;-75
2022/07/09 04:07:46;;;;;;;8.60;4.20;;;;;;;25.06;49.69;100261.59;2102704;28;20555;-74
2022/07/09 04:09:09;;;;;;;7.30;3.83;;;;;;;25.08;49.62;100265.06;2103087;28;20048;-74
2022/07/09 04:10:32;;;;;;;8.38;4.68;;;;;;;25.20;49.70;100267.16;2094127;28;20532;-75
2022/07/09 04:11:53;;;;;;;5.95;3.85;;;;;;;25.33;49.57;100268.25;2099194;28;20134;-74
2022/07/09 04:13:16;;;;;;;;;;;;;;;25.46;49.48;100270.28;2102741;28;20055;-74
2022/07/09 04:14:37;;;;;;;6.50;3.97;;;;;;;25.61;49.31;100267.63;2103441;28;19927;-74
2022/07/09 04:15:59;;;;;;;7.10;3.97;;;;;;;25.77;48.81;100273.97;2094025;28;20167;-74
2022/07/09 04:17:22;;;;;;;12.02;4.47;;;;;;;25.92;48.26;100265.97;2099880;28;20068;-74
2022/07/09 04:18:44;;;;;;;6.82;3.85;;;;;;;26.05;47.95;100265.22;2102460;28;20048;-75
2022/07/09 04:20:08;;;;;;;8.15;3.97;;;;;;;26.18;47.83;100266.25;2105273;28;20139;-73
2022/07/09 04:21:29;;;;;;;7.32;4.35;;;;;;;26.31;47.49;100273.72;2105474;28;20110;-74
2022/07/09 04:22:53;;;;;;;9.32;3.67;;;;;;;26.44;47.10;100269.34;2110522;28;20106;-73
2022/07/09 04:24:16;;;;;;;5.93;3.85;;;;;;;26.62;47.16;100273.69;2104913;28;20052;-74
2022/07/09 04:25:39;;;;;;;7.90;4.32;;;;;;;26.76;46.72;100275.56;2108350;28;20069;-75
2022/07/09 04:27:00;;;;;;;5.82;3.25;;;;;;;26.90;46.44;100279.25;2113719;28;20055;-74
2022/07/09 04:28:23;;;;;;;6.18;3.50;;;;;;;27.03;46.23;100276.69;2110898;28;20047;-74
2022/07/09 04:29:44;;;;;;;7.63;3.03;;;;;;;27.17;45.67;100286.69;2110953;28;20434;-75
2022/07/09 04:31:06;;;;;;;6.20;3.28;;;;;;;27.29;45.24;100284.09;2102558;28;20440;-71
2022/07/09 04:32:28;;;;;;;5.65;3.38;;;;;;;27.48;45.24;100281.13;2108411;28;20048;-74
2022/07/09 04:33:53;;;;;;;6.20;3.42;;;;;;;27.70;45.09;100277.97;2111321;28;20036;-74
2022/07/09 04:35:15;;;;;;;5.93;3.17;;;;;;;27.94;44.77;100290.00;2105084;28;20086;-74
2022/07/09 04:36:37;;;;;;;5.70;3.30;;;;;;;28.17;44.46;100291.25;2108274;28;20047;-73
2022/07/09 04:38:01;;;;;;;10.23;3.90;;;;;;;28.36;44.05;100293.63;2110935;28;20135;-75
2022/07/09 04:39:24;;;;;;;7.50;3.30;;;;;;;28.55;43.55;100289.59;2110898;28;20138;-73
2022/07/09 04:40:46;;;;;;;5.85;3.55;;;;;;;28.72;42.91;100290.34;2101781;28;20039;-74
2022/07/09 04:42:09;;;;;;;8.05;4.05;;;;;;;28.87;42.12;100292.06;2107473;28;20047;-74
2022/07/09 04:43:32;;;;;;;23.67;5.15;;;;;;;28.98;41.79;100291.31;2110137;28;20055;-74
2022/07/09 04:44:53;;;;;;;6.55;4.00;;;;;;;29.06;41.66;100288.97;2110867;28;20039;-74
2022/07/09 04:46:16;;;;;;;9.15;3.83;;;;;;;29.16;41.83;100288.22;2110184;28;20163;-74
2022/07/09 04:47:39;;;;;;;6.00;3.78;;;;;;;29.29;41.85;100299.97;2102262;28;20043;-73
2022/07/09 04:49:01;;;;;;;8.23;4.60;;;;;;;29.41;41.73;100294.69;2108125;28;20055;-74
2022/07/09 04:50:22;;;;;;;12.15;3.97;;;;;;;29.58;41.42;100308.88;2110779;28;20059;-74
2022/07/09 04:51:45;;;;;;;9.75;4.05;;;;;;;29.76;41.06;100298.53;2110719;28;20059;-74
2022/07/09 04:53:09;;;;;;;6.55;3.45;;;;;;;29.99;40.89;100305.97;2102164;28;20486;-74
2022/07/09 04:54:30;;;;;;;6.20;3.28;;;;;;;30.22;40.51;100295.22;2108489;28;20532;-74
2022/07/09 04:55:53;;;;;;;4.85;3.55;;;;;;;30.44;40.09;100299.00;2110617;28;20101;-74
2022/07/09 04:57:15;;;;;;;6.10;3.70;;;;;;;30.67;39.55;100300.00;2110981;28;20047;-74
2022/07/09 04:58:37;;;;;;;5.30;3.17;;;;;;;30.83;39.00;100295.16;2102167;28;20059;-74
2022/07/09 05:00:00;;;;;;;5.93;3.55;;;;;;;30.99;38.72;100297.56;2107515;28;20047;-74
2022/07/09 05:01:23;;;;;;;7.32;3.67;;;;;;;31.16;38.13;100301.78;2111051;28;20071;-74
2022/07/09 05:02:46;;;;;;;8.38;3.58;;;;;;;31.38;38.00;100295.50;2088046;28;20047;-73
2022/07/09 05:04:07;;;;;;;6.63;3.45;;;;;;;31.58;37.84;100306.59;2083254;28;20590;-73
2022/07/09 05:05:30;;;;;;;4.97;3.30;;;;;;;31.82;37.45;100300.22;2091335;28;20060;-74
2022/07/09 05:06:51;;;;;;;6.90;3.78;;;;;;;32.06;36.79;100288.16;2085189;28;20115;-76
2022/07/09 05:08:15;;;;;;;8.10;3.97;;;;;;;32.25;36.54;100293.03;2089832;28;20052;-74
2022/07/09 05:09:38;;;;;;;7.88;4.13;;;;;;;32.43;36.38;100288.75;2096783;28;20051;-74
2022/07/09 05:10:59;;;;;;;5.15;3.53;;;;;;;32.66;35.88;100291.47;2093777;28;20103;-73
2022/07/09 05:12:22;;;;;;;5.93;3.58;;;;;;;32.84;35.38;100281.72;2096498;28;20051;-74
2022/07/09 05:13:43;;;;;;;5.88;3.40;;;;;;;33.04;35.09;100285.50;2093660;28;20044;-74
2022/07/09 05:15:07;;;;;;;6.47;3.17;;;;;;;33.32;34.61;100287.63;2085653;28;20099;-74
2022/07/09 05:16:28;;;;;;;9.20;4.00;;;;;;;33.52;33.83;100292.25;2091840;28;20506;-74
2022/07/09 05:17:51;;;;;;;4.25;2.97;;;;;;;33.68;33.49;100290.88;2093790;28;20044;-74
2022/07/09 05:19:12;;;;;;;6.97;3.58;;;;;;;33.85;32.95;100288.44;2093884;28;20087;-73
2022/07/09 05:20:34;;;;;;;7.70;3.30;;;;;;;34.08;32.52;100293.69;2093565;28;20055;-74
2022/07/09 05:21:56;;;;;;;6.60;3.63;;;;;;;34.32;32.42;100286.91;2101368;28;20071;-74
2022/07/09 05:23:20;;;;;;;5.90;3.63;;;;;;;34.49;32.12;100289.97;2110306;28;20132;-73
2022/07/09 05:24:43;;;;;;;8.40;3.65;;;;;;;34.62;31.84;100302.44;2102450;28;20586;-74
2022/07/09 05:26:04;;;;;;;6.38;3.47;;;;;;;34.77;31.50;100294.69;2107968;28;20138;-74
2022/07/09 05:27:27;;;;;;;6.03;3.85;;;;;;;34.87;31.40;100286.44;2110166;28;20082;-74
2022/07/09 05:28:50;;;;;;;6.75;3.65;;;;;;;34.95;31.03;100282.00;2113256;28;20508;-74
2022/07/09 05:30:14;;;;;;;7.80;3.75;;;;;;;35.08;30.97;100281.69;2110626;28;20051;-74
2022/07/09 05:31:37;;;;;;;6.78;3.72;;;;;;;35.26;30.82;100295.59;2110552;28;20076;-74
2022/07/09 05:32:58;;;;;;;6.60;3.97;;;;;;;35.40;30.79;100295.13;2102094;28;20389;-74
2022/07/09 05:34:20;;;;;;;7.95;4.15;;;;;;;35.50;30.70;100305.13;2099399;28;20044;-74
2022/07/09 05:35:43;;;;;;;6.05;3.42;;;;;;;35.58;30.35;100296.97;2107923;28;20052;-74
2022/07/09 05:37:06;;;;;;;6.00;4.25;;;;;;;35.65;30.37;100301.88;2102187;28;20041;-74
2022/07/09 05:38:29;;;;;;;6.32;3.38;;;;;;;35.76;30.23;100299.88;2110594;28;20555;-75
2022/07/09 05:39:51;;;;;;;6.50;3.95;;;;;;;35.82;29.89;100299.28;2110576;28;20055;-74
2022/07/09 05:41:14;;;;;;;4.72;3.80;;;;;;;35.94;29.57;100300.81;2110570;28;20043;-74
2022/07/09 05:42:36;;;;;;;4.93;3.70;;;;;;;36.09;29.62;100301.22;2102172;28;20556;-74
2022/07/09 05:43:59;;;;;;;39.25;5.50;;;;;;;36.22;29.41;100299.00;2098887;28;20079;-74
2022/07/09 05:45:20;;;;;;;5.97;3.70;;;;;;;36.28;29.21;100298.41;2107898;28;20142;-73
2022/07/09 05:46:43;;;;;;;8.32;4.05;;;;;;;36.41;28.91;100297.19;2102027;28;20051;-74
2022/07/09 05:48:05;;;;;;;7.57;3.88;;;;;;;36.53;28.57;100296.81;2107571;28;20070;-74
2022/07/09 05:49:28;;;;;;;7.40;3.88;;;;;;;36.54;28.27;100293.03;2104845;28;20055;-74
2022/07/09 05:50:49;;;;;;;5.18;4.05;;;;;;;36.61;28.35;100290.53;2107797;28;20093;-72
2022/07/09 05:52:11;;;;;;;4.93;3.90;;;;;;;36.60;28.46;100288.81;2110308;28;20052;-72
2022/07/09 05:53:35;;;;;;;6.43;3.92;;;;;;;36.57;28.00;100289.97;2110625;28;20138;-72
2022/07/09 05:54:58;;;;;;;6.45;4.22;;;;;;;36.50;28.34;100291.59;2113071;28;20052;-72
2022/07/09 05:56:19;;;;;;;5.20;4.05;;;;;;;36.53;28.10;100293.19;2110192;28;20074;-75
2022/07/09 05:57:42;;;;;;;6.35;4.68;;;;;;;36.57;28.14;100294.59;2110457;28;20113;-74
2022/07/09 05:59:04;;;;;;;6.20;3.85;;;;;;;36.57;27.90;100291.84;2101887;28;20565;-75
2022/07/09 06:00:27;;;;;;;7.43;4.28;;;;;;;36.56;28.08;100287.38;2107612;28;20548;-74
2022/07/09 06:01:49;;;;;;;7.43;4.28;;;;;;;36.55;28.02;100291.16;2110399;28;20044;-74
2022/07/09 06:03:11;;;;;;;6.35;4.43;;;;;;;36.59;28.38;100292.56;2109998;28;20078;-74
2022/07/09 06:04:33;;;;;;;7.38;3.92;;;;;;;36.66;28.28;100291.84;2110268;28;20443;-74
2022/07/09 06:05:54;;;;;;;8.38;4.32;;;;;;;36.75;28.28;100298.31;2104816;28;20134;-74
2022/07/09 06:07:17;;;;;;;5.90;4.10;;;;;;;36.76;28.37;100300.00;2107519;28;20051;-73
2022/07/09 06:08:40;;;;;;;6.35;4.25;;;;;;;36.82;28.43;100298.53;2110287;28;20146;-72
2022/07/09 06:10:03;;;;;;;4.72;3.75;;;;;;;36.82;28.36;100299.41;2110281;28;20043;-72
2022/07/09 06:11:26;;;;;;;5.05;4.10;;;;;;;36.75;28.47;100295.53;2101737;28;20048;-73
2022/07/09 06:12:47;;;;;;;6.38;4.60;;;;;;;36.66;28.90;100293.72;2107269;28;20056;-73
2022/07/09 06:14:10;;;;;;;9.07;4.43;;;;;;;36.60;29.09;100297.06;2110146;28;20052;-73
2022/07/09 06:15:33;;;;;;;10.07;4.65;;;;;;;36.69;29.23;100298.94;2101411;28;20068;-73
2022/07/09 06:16:55;;;;;;;5.43;4.30;;;;;;;36.69;29.32;100298.94;2106754;28;20044;-73
2022/07/09 06:18:17;;;;;;;6.18;4.15;;;;;;;36.71;29.30;100303.22;2109869;28;20061;-73
2022/07/09 06:19:39;;;;;;;6.65;4.90;;;;;;;36.71;29.95;100307.88;2109986;28;20433;-73
2022/07/09 06:21:01;;;;;;;7.20;4.78;;;;;;;36.65;30.08;100297.47;2101684;28;20524;-73